sensor_id;sensor_type;location;lat;lon;timestamp;P1;durP1;ratioP1;P2;durP2;ratioP2
23768;SDS011;12064;50.890;5.424;2024-02-28T00:06:36;7.97;;;5.60;;
23768;SDS011;12064;50.890;5.424;2024-02-28T00:15:27;7.45;;;5.13;;
23768;SDS011;12064;50.890;5.424;2024-02-28T00:24:17;7.70;;;5.63;;
23768;SDS011;12064;50.890;5.424;2024-02-28T00:33:08;8.17;;;5.47;;
23768;SDS011;12064;50.890;5.424;2024-02-28T00:41:58;6.87;;;5.57;;
23768;SDS011;12064;50.890;5.424;2024-02-28T00:50:49;7.63;;;5.87;;
23768;SDS011;12064;50.890;5.424;2024-02-28T00:59:40;6.47;;;5.40;;
23768;SDS011;12064;50.890;5.424;2024-02-28T01:08:30;7.20;;;5.30;;
23768;SDS011;12064;50.890;5.424;2024-02-28T01:17:21;8.03;;;5.57;;
23768;SDS011;12064;50.890;5.424;2024-02-28T01:26:11;6.50;;;5.60;;
23768;SDS011;12064;50.890;5.424;2024-02-28T01:35:02;7.05;;;5.70;;
23768;SDS011;12064;50.890;5.424;2024-02-28T01:43:53;7.28;;;6.18;;
23768;SDS011;12064;50.890;5.424;2024-02-28T01:52:44;7.67;;;5.40;;
23768;SDS011;12064;50.890;5.424;2024-02-28T02:01:34;6.72;;;5.68;;
23768;SDS011;12064;50.890;5.424;2024-02-28T02:10:27;7.05;;;5.95;;
23768;SDS011;12064;50.890;5.424;2024-02-28T02:19:18;7.53;;;5.82;;
23768;SDS011;12064;50.890;5.424;2024-02-28T02:28:10;6.20;;;5.30;;
23768;SDS011;12064;50.890;5.424;2024-02-28T02:37:01;7.97;;;6.18;;
23768;SDS011;12064;50.890;5.424;2024-02-28T02:45:52;6.97;;;5.72;;
23768;SDS011;12064;50.890;5.424;2024-02-28T02:54:42;6.97;;;5.17;;
23768;SDS011;12064;50.890;5.424;2024-02-28T03:03:33;6.53;;;5.87;;
23768;SDS011;12064;50.890;5.424;2024-02-28T03:12:23;6.37;;;5.27;;
23768;SDS011;12064;50.890;5.424;2024-02-28T03:21:14;7.03;;;5.70;;
23768;SDS011;12064;50.890;5.424;2024-02-28T03:30:05;7.05;;;5.78;;
23768;SDS011;12064;50.890;5.424;2024-02-28T03:38:56;7.00;;;6.07;;
23768;SDS011;12064;50.890;5.424;2024-02-28T03:47:47;6.60;;;6.00;;
23768;SDS011;12064;50.890;5.424;2024-02-28T03:56:37;6.63;;;5.33;;
23768;SDS011;12064;50.890;5.424;2024-02-28T04:05:28;6.33;;;5.73;;
23768;SDS011;12064;50.890;5.424;2024-02-28T04:14:22;6.47;;;5.70;;
23768;SDS011;12064;50.890;5.424;2024-02-28T04:23:12;7.22;;;5.25;;
23768;SDS011;12064;50.890;5.424;2024-02-28T04:32:03;6.43;;;5.33;;
23768;SDS011;12064;50.890;5.424;2024-02-28T04:40:57;5.90;;;5.03;;
23768;SDS011;12064;50.890;5.424;2024-02-28T04:49:48;5.80;;;5.27;;
23768;SDS011;12064;50.890;5.424;2024-02-28T04:58:38;6.63;;;5.27;;
23768;SDS011;12064;50.890;5.424;2024-02-28T05:07:29;7.40;;;5.10;;
23768;SDS011;12064;50.890;5.424;2024-02-28T05:16:19;5.50;;;5.00;;
23768;SDS011;12064;50.890;5.424;2024-02-28T05:25:10;5.93;;;5.10;;
23768;SDS011;12064;50.890;5.424;2024-02-28T05:34:01;6.85;;;5.03;;
23768;SDS011;12064;50.890;5.424;2024-02-28T05:42:52;7.07;;;4.57;;
23768;SDS011;12064;50.890;5.424;2024-02-28T05:51:42;6.10;;;5.03;;
23768;SDS011;12064;50.890;5.424;2024-02-28T06:00:34;6.18;;;4.90;;
23768;SDS011;12064;50.890;5.424;2024-02-28T06:09:26;4.72;;;4.32;;
23768;SDS011;12064;50.890;5.424;2024-02-28T06:18:19;5.78;;;5.10;;
23768;SDS011;12064;50.890;5.424;2024-02-28T06:27:12;5.10;;;4.60;;
23768;SDS011;12064;50.890;5.424;2024-02-28T06:36:03;4.50;;;4.10;;
23768;SDS011;12064;50.890;5.424;2024-02-28T06:44:54;5.10;;;4.22;;
23768;SDS011;12064;50.890;5.424;2024-02-28T06:53:45;5.43;;;4.43;;
23768;SDS011;12064;50.890;5.424;2024-02-28T07:02:36;4.35;;;3.90;;
23768;SDS011;12064;50.890;5.424;2024-02-28T07:11:26;4.68;;;4.20;;
23768;SDS011;12064;50.890;5.424;2024-02-28T07:20:17;4.13;;;3.72;;
23768;SDS011;12064;50.890;5.424;2024-02-28T07:29:08;4.23;;;3.67;;
23768;SDS011;12064;50.890;5.424;2024-02-28T07:37:58;4.60;;;3.70;;
23768;SDS011;12064;50.890;5.424;2024-02-28T07:46:49;5.07;;;4.27;;
23768;SDS011;12064;50.890;5.424;2024-02-28T07:55:42;4.85;;;4.05;;
23768;SDS011;12064;50.890;5.424;2024-02-28T08:04:33;5.83;;;4.47;;
23768;SDS011;12064;50.890;5.424;2024-02-28T08:13:24;4.55;;;3.97;;
23768;SDS011;12064;50.890;5.424;2024-02-28T08:22:18;5.00;;;4.15;;
23768;SDS011;12064;50.890;5.424;2024-02-28T08:31:11;4.65;;;4.22;;
23768;SDS011;12064;50.890;5.424;2024-02-28T08:40:02;6.03;;;4.40;;
23768;SDS011;12064;50.890;5.424;2024-02-28T08:48:53;5.13;;;4.30;;
23768;SDS011;12064;50.890;5.424;2024-02-28T08:57:43;4.70;;;4.00;;
23768;SDS011;12064;50.890;5.424;2024-02-28T09:06:34;5.35;;;4.55;;
23768;SDS011;12064;50.890;5.424;2024-02-28T09:15:25;6.35;;;4.63;;
23768;SDS011;12064;50.890;5.424;2024-02-28T09:24:16;5.57;;;4.60;;
23768;SDS011;12064;50.890;5.424;2024-02-28T09:33:09;4.90;;;4.40;;
23768;SDS011;12064;50.890;5.424;2024-02-28T09:42:00;4.95;;;4.20;;
23768;SDS011;12064;50.890;5.424;2024-02-28T09:50:51;6.60;;;4.50;;
23768;SDS011;12064;50.890;5.424;2024-02-28T09:59:42;5.45;;;4.57;;
23768;SDS011;12064;50.890;5.424;2024-02-28T10:08:33;27.00;;;14.68;;
23768;SDS011;12064;50.890;5.424;2024-02-28T10:17:24;26.08;;;15.88;;
23768;SDS011;12064;50.890;5.424;2024-02-28T10:26:15;22.77;;;14.00;;
23768;SDS011;12064;50.890;5.424;2024-02-28T10:35:06;11.60;;;7.10;;
23768;SDS011;12064;50.890;5.424;2024-02-28T10:43:58;9.15;;;5.68;;
23768;SDS011;12064;50.890;5.424;2024-02-28T10:52:50;8.35;;;5.78;;
23768;SDS011;12064;50.890;5.424;2024-02-28T11:01:44;7.35;;;5.15;;
23768;SDS011;12064;50.890;5.424;2024-02-28T11:10:35;9.77;;;5.57;;
23768;SDS011;12064;50.890;5.424;2024-02-28T11:19:30;8.48;;;5.43;;
23768;SDS011;12064;50.890;5.424;2024-02-28T11:28:22;9.13;;;5.40;;
23768;SDS011;12064;50.890;5.424;2024-02-28T11:37:14;8.93;;;5.22;;
23768;SDS011;12064;50.890;5.424;2024-02-28T11:46:08;7.47;;;5.10;;
23768;SDS011;12064;50.890;5.424;2024-02-28T11:55:01;6.75;;;4.40;;
23768;SDS011;12064;50.890;5.424;2024-02-28T12:03:52;6.82;;;4.65;;
23768;SDS011;12064;50.890;5.424;2024-02-28T12:12:43;6.10;;;4.13;;
23768;SDS011;12064;50.890;5.424;2024-02-28T12:21:34;7.32;;;3.90;;
23768;SDS011;12064;50.890;5.424;2024-02-28T12:30:26;7.63;;;4.22;;
23768;SDS011;12064;50.890;5.424;2024-02-28T12:39:17;6.85;;;4.10;;
23768;SDS011;12064;50.890;5.424;2024-02-28T12:48:07;6.15;;;3.70;;
23768;SDS011;12064;50.890;5.424;2024-02-28T12:56:58;5.15;;;3.40;;
23768;SDS011;12064;50.890;5.424;2024-02-28T13:05:52;5.32;;;3.70;;
23768;SDS011;12064;50.890;5.424;2024-02-28T13:14:43;4.83;;;3.30;;
23768;SDS011;12064;50.890;5.424;2024-02-28T13:23:34;4.38;;;3.05;;
23768;SDS011;12064;50.890;5.424;2024-02-28T13:32:24;5.60;;;3.17;;
23768;SDS011;12064;50.890;5.424;2024-02-28T13:41:15;3.53;;;3.03;;
23768;SDS011;12064;50.890;5.424;2024-02-28T13:50:06;4.50;;;2.92;;
23768;SDS011;12064;50.890;5.424;2024-02-28T13:59:00;4.20;;;2.95;;
23768;SDS011;12064;50.890;5.424;2024-02-28T14:07:51;4.35;;;2.97;;
23768;SDS011;12064;50.890;5.424;2024-02-28T14:16:42;3.77;;;2.73;;
23768;SDS011;12064;50.890;5.424;2024-02-28T14:25:33;3.67;;;2.55;;
23768;SDS011;12064;50.890;5.424;2024-02-28T14:34:23;3.97;;;2.50;;
23768;SDS011;12064;50.890;5.424;2024-02-28T14:43:14;2.67;;;2.47;;
23768;SDS011;12064;50.890;5.424;2024-02-28T14:52:05;4.13;;;2.33;;
23768;SDS011;12064;50.890;5.424;2024-02-28T15:00:56;3.50;;;2.70;;
23768;SDS011;12064;50.890;5.424;2024-02-28T15:09:50;2.50;;;2.30;;
23768;SDS011;12064;50.890;5.424;2024-02-28T15:18:40;3.85;;;2.20;;
23768;SDS011;12064;50.890;5.424;2024-02-28T15:27:31;3.13;;;2.10;;
23768;SDS011;12064;50.890;5.424;2024-02-28T15:36:23;3.47;;;2.42;;
23768;SDS011;12064;50.890;5.424;2024-02-28T15:45:13;3.63;;;2.77;;
23768;SDS011;12064;50.890;5.424;2024-02-28T15:54:07;4.10;;;2.90;;
23768;SDS011;12064;50.890;5.424;2024-02-28T16:02:58;3.13;;;2.30;;
23768;SDS011;12064;50.890;5.424;2024-02-28T16:11:49;3.90;;;2.70;;
23768;SDS011;12064;50.890;5.424;2024-02-28T16:20:42;5.80;;;3.67;;
23768;SDS011;12064;50.890;5.424;2024-02-28T16:29:32;5.93;;;3.70;;
23768;SDS011;12064;50.890;5.424;2024-02-28T16:38:23;6.27;;;3.70;;
23768;SDS011;12064;50.890;5.424;2024-02-28T16:47:14;4.65;;;3.60;;
23768;SDS011;12064;50.890;5.424;2024-02-28T16:56:05;7.68;;;3.95;;
23768;SDS011;12064;50.890;5.424;2024-02-28T17:04:56;5.40;;;3.90;;
23768;SDS011;12064;50.890;5.424;2024-02-28T17:13:46;5.68;;;4.18;;
23768;SDS011;12064;50.890;5.424;2024-02-28T17:22:37;6.57;;;3.77;;
23768;SDS011;12064;50.890;5.424;2024-02-28T17:31:30;6.05;;;3.85;;
23768;SDS011;12064;50.890;5.424;2024-02-28T17:40:21;5.95;;;3.70;;
23768;SDS011;12064;50.890;5.424;2024-02-28T17:49:13;6.50;;;3.78;;
23768;SDS011;12064;50.890;5.424;2024-02-28T17:58:04;6.18;;;3.90;;
23768;SDS011;12064;50.890;5.424;2024-02-28T18:06:55;6.68;;;4.03;;
23768;SDS011;12064;50.890;5.424;2024-02-28T18:15:46;6.27;;;3.80;;
23768;SDS011;12064;50.890;5.424;2024-02-28T18:24:37;6.07;;;3.67;;
23768;SDS011;12064;50.890;5.424;2024-02-28T18:33:30;6.40;;;3.45;;
23768;SDS011;12064;50.890;5.424;2024-02-28T18:42:21;6.57;;;3.53;;
23768;SDS011;12064;50.890;5.424;2024-02-28T18:51:12;8.57;;;3.83;;
23768;SDS011;12064;50.890;5.424;2024-02-28T19:00:05;7.57;;;3.63;;
23768;SDS011;12064;50.890;5.424;2024-02-28T19:08:56;6.13;;;3.38;;
23768;SDS011;12064;50.890;5.424;2024-02-28T19:17:47;4.97;;;3.10;;
23768;SDS011;12064;50.890;5.424;2024-02-28T19:26:38;7.87;;;3.50;;
23768;SDS011;12064;50.890;5.424;2024-02-28T19:35:29;5.63;;;3.20;;
23768;SDS011;12064;50.890;5.424;2024-02-28T19:44:19;4.78;;;3.15;;
23768;SDS011;12064;50.890;5.424;2024-02-28T19:53:10;5.37;;;3.10;;
23768;SDS011;12064;50.890;5.424;2024-02-28T20:02:02;6.40;;;3.22;;
23768;SDS011;12064;50.890;5.424;2024-02-28T20:10:53;6.35;;;3.13;;
23768;SDS011;12064;50.890;5.424;2024-02-28T20:19:43;5.97;;;3.30;;
23768;SDS011;12064;50.890;5.424;2024-02-28T20:28:34;5.63;;;3.37;;
23768;SDS011;12064;50.890;5.424;2024-02-28T20:37:25;5.20;;;3.27;;
23768;SDS011;12064;50.890;5.424;2024-02-28T20:46:16;5.43;;;3.10;;
23768;SDS011;12064;50.890;5.424;2024-02-28T20:55:10;4.85;;;3.00;;
23768;SDS011;12064;50.890;5.424;2024-02-28T21:04:01;5.55;;;2.90;;
23768;SDS011;12064;50.890;5.424;2024-02-28T21:12:52;4.60;;;2.50;;
23768;SDS011;12064;50.890;5.424;2024-02-28T21:21:44;5.38;;;2.97;;
23768;SDS011;12064;50.890;5.424;2024-02-28T21:30:35;4.90;;;2.80;;
23768;SDS011;12064;50.890;5.424;2024-02-28T21:39:25;4.03;;;2.65;;
23768;SDS011;12064;50.890;5.424;2024-02-28T21:48:16;5.57;;;2.80;;
23768;SDS011;12064;50.890;5.424;2024-02-28T21:57:07;4.25;;;2.70;;
23768;SDS011;12064;50.890;5.424;2024-02-28T22:05:57;3.33;;;2.47;;
23768;SDS011;12064;50.890;5.424;2024-02-28T22:14:48;5.90;;;2.70;;
23768;SDS011;12064;50.890;5.424;2024-02-28T22:23:42;4.20;;;2.80;;
23768;SDS011;12064;50.890;5.424;2024-02-28T22:32:32;3.58;;;2.40;;
23768;SDS011;12064;50.890;5.424;2024-02-28T22:41:23;5.87;;;2.80;;
23768;SDS011;12064;50.890;5.424;2024-02-28T22:50:14;4.00;;;2.58;;
23768;SDS011;12064;50.890;5.424;2024-02-28T22:59:05;4.13;;;2.60;;
23768;SDS011;12064;50.890;5.424;2024-02-28T23:07:56;3.95;;;2.60;;
23768;SDS011;12064;50.890;5.424;2024-02-28T23:16:48;4.13;;;2.70;;
23768;SDS011;12064;50.890;5.424;2024-02-28T23:25:43;4.18;;;2.70;;
23768;SDS011;12064;50.890;5.424;2024-02-28T23:34:34;3.43;;;2.43;;
23768;SDS011;12064;50.890;5.424;2024-02-28T23:43:25;5.10;;;2.60;;
23768;SDS011;12064;50.890;5.424;2024-02-28T23:52:16;4.20;;;2.80;;
